Time;durP1;ratioP1;P1;durP2;ratioP2;P2;SDS_P1;SDS_P2;PMS_P1;PMS_P2;Temp;Humidity;BMP_temperature;BMP_pressure;BME280_temperature;BME280_humidity;BME280_pressure;Samples;Min_cycle;Max_cycle;Signal;HPM_P1;HPM_P2
2023/09/23 00:00:24;;;;;;;1.73;1.02;;;;;;;9.73;100.00;95400.00;1043275;28;20512;-75
2023/09/23 00:00:54;;;;;;;1.00;0.90;;;;;;;9.72;100.00;95392.38;1046746;28;20267;-77
2023/09/23 00:01:25;;;;;;;2.67;0.90;;;;;;;9.72;100.00;95398.41;1045995;28;20725;-75
2023/09/23 00:01:57;;;;;;;1.08;0.98;;;;;;;9.74;100.00;95406.03;1047167;28;20052;-75
2023/09/23 00:02:28;;;;;;;0.98;0.85;;;;;;;9.71;100.00;95401.31;1038518;28;20268;-76
2023/09/23 00:02:59;;;;;;;1.27;0.90;;;;;;;9.72;100.00;95406.28;1031059;28;20614;-74
2023/09/23 00:03:33;;;;;;;0.85;0.70;;;;;;;9.66;100.00;95405.50;1034685;28;20036;-75
2023/09/23 00:04:04;;;;;;;1.00;0.63;;;;;;;9.72;100.00;95411.50;1032003;28;20626;-75
2023/09/23 00:04:35;;;;;;;0.77;0.68;;;;;;;9.72;100.00;95411.50;1038652;28;20303;-75
2023/09/23 00:05:09;;;;;;;1.20;1.00;;;;;;;9.70;100.00;95405.00;1034715;28;20056;-75
2023/09/23 00:05:40;;;;;;;0.77;0.68;;;;;;;9.70;100.00;95410.22;1030645;28;20315;-75
2023/09/23 00:06:10;;;;;;;1.15;0.70;;;;;;;9.63;100.00;95395.56;1027701;28;20713;-75
2023/09/23 00:06:41;;;;;;;1.15;0.90;;;;;;;9.71;100.00;95411.78;1035441;28;20022;-75
2023/09/23 00:07:11;;;;;;;4.50;0.90;;;;;;;9.64;100.00;95397.13;1038918;28;20025;-75
2023/09/23 00:07:42;;;;;;;1.58;1.35;;;;;;;9.70;100.00;95416.25;1038710;28;20614;-74
2023/09/23 00:08:13;;;;;;;4.28;0.98;;;;;;;9.71;100.00;95412.56;1034426;28;20030;-74
2023/09/23 00:08:44;;;;;;;0.95;0.82;;;;;;;9.68;100.00;95406.03;1043011;28;20267;-74
2023/09/23 00:09:17;;;;;;;1.02;0.77;;;;;;;9.74;100.00;95421.75;1042634;28;20482;-74
2023/09/23 00:09:47;;;;;;;1.88;0.80;;;;;;;9.72;100.00;95414.13;1042735;28;20271;-75
2023/09/23 00:10:18;;;;;;;2.97;1.13;;;;;;;9.73;100.00;95414.94;1041802;28;20336;-74
2023/09/23 00:10:50;;;;;;;0.70;0.68;;;;;;;9.66;100.00;95410.75;1039470;28;20025;-74
2023/09/23 00:11:21;;;;;;;3.08;0.90;;;;;;;9.72;100.00;95423.81;1043552;28;20048;-75
2023/09/23 00:11:51;;;;;;;1.98;0.95;;;;;;;9.71;100.00;95417.03;1042889;28;20322;-75
2023/09/23 00:12:22;;;;;;;2.20;0.98;;;;;;;9.72;100.00;95424.63;1042349;28;20028;-75
2023/09/23 00:12:55;;;;;;;1.00;0.73;;;;;;;9.74;100.00;95426.97;1030519;28;20064;-76
2023/09/23 00:13:28;;;;;;;1.88;0.50;;;;;;;9.65;100.00;95417.03;1035073;28;20025;-75
2023/09/23 00:13:59;;;;;;;0.80;0.70;;;;;;;9.74;100.00;95424.38;1035608;28;20285;-75
2023/09/23 00:14:29;;;;;;;1.02;0.70;;;;;;;9.74;100.00;95419.91;1039459;28;20256;-74
2023/09/23 00:15:00;;;;;;;0.70;0.52;;;;;;;9.77;100.00;95422.00;1047790;28;20542;-74
2023/09/23 00:15:31;;;;;;;1.15;0.80;;;;;;;9.75;100.00;95418.84;1047075;28;20521;-75
2023/09/23 00:16:07;;;;;;;1.63;0.90;;;;;;;9.75;100.00;95418.06;1038709;28;20022;-75
2023/09/23 00:16:38;;;;;;;0.70;0.60;;;;;;;9.77;100.00;95421.22;1038693;28;20480;-76
2023/09/23 00:17:08;;;;;;;0.75;0.70;;;;;;;9.79;100.00;95425.16;1038656;28;20306;-75
2023/09/23 00:17:39;;;;;;;1.35;0.77;;;;;;;9.74;100.00;95416.50;1030778;28;20490;-74
2023/09/23 00:18:09;;;;;;;0.85;0.70;;;;;;;9.80;100.00;95425.94;1036295;28;20029;-73
2023/09/23 00:18:40;;;;;;;0.65;0.65;;;;;;;9.78;100.00;95420.16;1038608;28;20114;-75
2023/09/23 00:19:10;;;;;;;2.67;0.60;;;;;;;9.75;100.00;95415.44;1030497;28;20121;-75
2023/09/23 00:19:41;;;;;;;2.47;0.75;;;;;;;9.75;100.00;95412.81;1034712;28;20034;-76
2023/09/23 00:20:14;;;;;;;1.42;0.88;;;;;;;9.77;100.00;95416.75;1026436;28;20027;-75
2023/09/23 00:20:46;;;;;;;1.00;0.52;;;;;;;9.77;100.00;95421.22;1034439;28;20038;-76
2023/09/23 00:21:16;;;;;;;1.58;0.55;;;;;;;9.79;100.00;95419.09;1034563;28;20806;-76
2023/09/23 00:21:49;;;;;;;1.13;1.05;;;;;;;9.80;100.00;95415.44;1039684;28;20291;-74
2023/09/23 00:22:20;;;;;;;1.35;0.82;;;;;;;9.76;100.00;95409.16;1047155;28;20035;-75
2023/09/23 00:22:52;;;;;;;1.23;0.60;;;;;;;9.81;100.00;95419.63;1038395;28;20264;-74
2023/09/23 00:23:23;;;;;;;1.70;0.70;;;;;;;9.82;100.00;95418.56;1038481;28;20272;-75
2023/09/23 00:23:55;;;;;;;1.23;0.60;;;;;;;9.80;100.00;95416.22;1039813;28;20276;-75
2023/09/23 00:24:25;;;;;;;0.80;0.80;;;;;;;9.77;100.00;95410.72;1039549;28;20052;-77
2023/09/23 00:24:56;;;;;;;1.70;0.80;;;;;;;9.81;100.00;95414.38;1038665;28;20272;-75
2023/09/23 00:25:26;;;;;;;2.20;0.88;;;;;;;9.83;100.00;95420.16;1026536;28;20034;-75
2023/09/23 00:25:57;;;;;;;2.65;0.80;;;;;;;9.82;100.00;95413.34;1030649;28;20504;-76
2023/09/23 00:26:28;;;;;;;0.88;0.75;;;;;;;9.81;100.00;95411.78;1034805;28;20033;-76
2023/09/23 00:26:59;;;;;;;0.65;0.60;;;;;;;9.81;100.00;95411.78;1042783;28;20079;-75
2023/09/23 00:27:30;;;;;;;1.77;0.73;;;;;;;9.79;100.00;95408.63;1046802;28;20028;-74
2023/09/23 00:28:02;;;;;;;1.77;0.80;;;;;;;9.81;100.00;95406.53;1038622;28;20346;-75
2023/09/23 00:28:32;;;;;;;1.58;0.82;;;;;;;9.83;100.00;95413.09;1039005;28;20323;-75
2023/09/23 00:29:04;;;;;;;1.08;0.70;;;;;;;9.79;100.00;95408.63;1038678;28;20937;-75
2023/09/23 00:29:35;;;;;;;1.67;1.13;;;;;;;9.82;100.00;95408.09;1038443;28;20030;-74
2023/09/23 00:30:06;;;;;;;1.52;0.70;;;;;;;9.82;100.00;95408.88;1038810;28;20271;-77
2023/09/23 00:30:37;;;;;;;2.90;0.60;;;;;;;9.82;100.00;95408.09;1037060;28;20025;-75
2023/09/23 00:31:14;;;;;;;0.82;0.80;;;;;;;9.83;100.00;95401.81;1030398;28;20705;-77
2023/09/23 00:31:44;;;;;;;2.17;1.10;;;;;;;9.77;100.00;95401.03;1036134;28;20030;-75
2023/09/23 00:32:17;;;;;;;1.10;0.75;;;;;;;9.81;100.00;95401.28;1036499;28;20272;-76
2023/09/23 00:32:48;;;;;;;1.00;0.80;;;;;;;9.81;100.00;95406.53;1045022;28;20503;-75
2023/09/23 00:33:19;;;;;;;1.48;0.90;;;;;;;9.82;100.00;95405.47;1045501;28;20295;-75
2023/09/23 00:33:49;;;;;;;1.15;0.73;;;;;;;9.80;100.00;95402.34;1043137;28;20300;-75
2023/09/23 00:34:20;;;;;;;1.10;0.63;;;;;;;9.80;100.00;95405.75;1042851;28;20492;-74
2023/09/23 00:34:51;;;;;;;1.48;0.75;;;;;;;9.84;100.00;95416.47;1038591;28;20029;-75
2023/09/23 00:35:22;;;;;;;1.25;0.82;;;;;;;9.82;100.00;95403.63;1037611;28;20746;-75
2023/09/23 00:35:53;;;;;;;1.88;0.75;;;;;;;9.84;100.00;95408.63;1034552;28;20121;-75
2023/09/23 00:36:24;;;;;;;0.90;0.80;;;;;;;9.85;100.00;95407.56;1034558;28;20339;-74
2023/09/23 00:36:55;;;;;;;2.30;1.23;;;;;;;9.86;100.00;95414.41;1036175;28;20068;-74
2023/09/23 00:37:25;;;;;;;0.68;0.68;;;;;;;9.84;100.00;95406.00;1034547;28;20276;-75
2023/09/23 00:37:56;;;;;;;1.20;0.90;;;;;;;9.89;100.00;95417.25;1034732;28;20030;-74
2023/09/23 00:38:27;;;;;;;2.08;0.80;;;;;;;9.83;100.00;95399.19;1035478;28;20026;-75
2023/09/23 00:38:58;;;;;;;0.70;0.70;;;;;;;9.91;100.00;95417.00;1034601;28;20543;-75
2023/09/23 00:39:29;;;;;;;0.82;0.77;;;;;;;9.93;100.00;95414.91;1034542;28;20129;-75
2023/09/23 00:39:59;;;;;;;1.33;1.10;;;;;;;9.94;100.00;95421.69;1035047;28;20253;-75
2023/09/23 00:40:32;;;;;;;1.02;0.90;;;;;;;9.96;100.00;95419.63;1034276;28;20379;-75
2023/09/23 00:41:06;;;;;;;0.90;0.90;;;;;;;9.97;100.00;95421.16;1038581;28;20026;-75
2023/09/23 00:41:36;;;;;;;1.27;1.00;;;;;;;9.96;100.00;95408.31;1042928;28;20620;-75
2023/09/23 00:42:10;;;;;;;1.20;1.10;;;;;;;9.98;100.00;95422.72;1041288;28;20263;-74
2023/09/23 00:42:40;;;;;;;1.52;0.95;;;;;;;9.96;100.00;95414.38;1039533;28;20472;-75
2023/09/23 00:43:12;;;;;;;0.77;0.77;;;;;;;10.00;100.00;95423.25;1037663;28;20274;-75
2023/09/23 00:43:43;;;;;;;0.85;0.68;;;;;;;9.98;100.00;95419.34;1032396;28;20460;-74
2023/09/23 00:44:14;;;;;;;1.20;0.93;;;;;;;10.01;100.00;95422.19;1035679;28;20288;-74
2023/09/23 00:44:44;;;;;;;1.13;0.73;;;;;;;10.04;100.00;95432.16;1039019;28;20260;-75
2023/09/23 00:45:16;;;;;;;1.75;1.00;;;;;;;10.02;100.00;95429.00;1039598;28;20028;-76
2023/09/23 00:45:48;;;;;;;1.48;0.70;;;;;;;10.06;100.00;95432.69;1042265;28;20482;-74
2023/09/23 00:46:22;;;;;;;1.13;1.00;;;;;;;10.04;100.00;95426.91;1034984;28;20760;-75
2023/09/23 00:46:52;;;;;;;0.70;0.70;;;;;;;10.07;100.00;95434.25;1039437;28;20275;-74
2023/09/23 00:47:23;;;;;;;0.88;0.88;;;;;;;9.96;100.00;95411.75;1043701;28;20267;-75
2023/09/23 00:47:53;;;;;;;0.90;0.55;;;;;;;10.11;100.00;95431.88;1043311;28;20029;-75
2023/09/23 00:48:24;;;;;;;1.35;1.20;;;;;;;10.11;100.00;95431.88;1034442;28;20600;-73
2023/09/23 00:48:55;;;;;;;1.25;0.88;;;;;;;10.05;100.00;95428.47;1030354;28;20073;-75
2023/09/23 00:49:27;;;;;;;0.82;0.82;;;;;;;10.11;100.00;95427.41;1034740;28;20017;-74
2023/09/23 00:49:57;;;;;;;2.15;0.80;;;;;;;10.08;100.00;95422.69;1034221;28;20022;-75
2023/09/23 00:50:29;;;;;;;2.00;0.90;;;;;;;10.08;100.00;95427.94;1026910;28;20305;-75
2023/09/23 00:51:00;;;;;;;1.58;1.13;;;;;;;10.12;100.00;95434.22;1038668;28;20026;-75
2023/09/23 00:51:30;;;;;;;1.42;1.00;;;;;;;10.11;100.00;95429.25;1030151;28;20642;-74
2023/09/23 00:52:02;;;;;;;2.70;1.40;;;;;;;10.11;100.00;95432.66;1034610;28;20052;-74
2023/09/23 00:52:33;;;;;;;2.35;1.38;;;;;;;10.09;100.00;95434.78;1026281;28;20050;-77
2023/09/23 00:53:04;;;;;;;2.10;1.20;;;;;;;10.11;100.00;95435.28;1038707;28;20770;-75
2023/09/23 00:53:36;;;;;;;0.82;0.80;;;;;;;10.08;100.00;95433.19;1038640;28;20017;-75
2023/09/23 00:54:13;;;;;;;1.52;1.15;;;;;;;10.07;100.00;95429.00;1026595;28;20604;-74
2023/09/23 00:54:44;;;;;;;1.83;1.27;;;;;;;10.09;100.00;95433.97;1029063;28;20262;-75
2023/09/23 00:55:16;;;;;;;1.48;1.10;;;;;;;10.08;100.00;95438.44;1027669;28;20277;-75
2023/09/23 00:55:47;;;;;;;1.85;0.98;;;;;;;10.02;100.00;95434.25;1030600;28;20030;-74
2023/09/23 00:56:20;;;;;;;1.33;1.00;;;;;;;10.01;100.00;95434.53;1034590;28;20265;-75
2023/09/23 00:56:51;;;;;;;1.55;1.10;;;;;;;9.99;100.00;95434.78;1038354;28;20639;-75
2023/09/23 00:57:21;;;;;;;1.63;1.33;;;;;;;10.05;100.00;95443.41;1038355;28;20260;-75
2023/09/23 00:57:59;;;;;;;1.42;1.08;;;;;;;10.04;100.00;95447.09;1034472;28;20068;-75
2023/09/23 00:58:30;;;;;;;1.55;1.35;;;;;;;10.02;100.00;95447.34;1035558;28;20022;-75
2023/09/23 00:59:00;;;;;;;1.10;1.00;;;;;;;9.98;100.00;95443.69;1041648;28;20283;-74
2023/09/23 00:59:32;;;;;;;1.75;1.30;;;;;;;9.98;100.00;95440.31;1039591;28;20487;-74
2023/09/23 01:00:04;;;;;;;1.48;1.10;;;;;;;9.95;100.00;95444.22;1038532;28;20029;-75
2023/09/23 01:00:36;;;;;;;1.73;1.10;;;;;;;9.96;100.00;95440.56;1038114;28;20278;-75
2023/09/23 01:01:07;;;;;;;3.35;1.40;;;;;;;9.99;100.00;95445.25;1038615;28;20359;-74
2023/09/23 01:01:40;;;;;;;1.98;1.23;;;;;;;9.98;100.00;95450.78;1038722;28;20271;-74
2023/09/23 01:02:13;;;;;;;1.20;1.10;;;;;;;9.98;100.00;95442.91;1038295;28;20108;-74
2023/09/23 01:02:46;;;;;;;1.10;1.00;;;;;;;9.99;100.00;95452.34;1040561;28;20260;-75
2023/09/23 01:03:18;;;;;;;3.85;1.70;;;;;;;9.98;100.00;95448.94;1042841;28;20259;-75
2023/09/23 01:03:48;;;;;;;1.40;1.20;;;;;;;9.98;100.00;95448.16;1043926;28;20275;-75
2023/09/23 01:04:19;;;;;;;1.80;1.42;;;;;;;9.99;100.00;95447.09;1038355;28;20635;-74
2023/09/23 01:04:50;;;;;;;1.42;1.23;;;;;;;9.99;100.00;95444.47;1038775;28;20025;-75
2023/09/23 01:05:21;;;;;;;1.75;1.42;;;;;;;10.00;100.00;95452.09;1034556;28;20835;-75
2023/09/23 01:06:04;;;;;;;1.90;1.50;;;;;;;9.97;100.00;95444.75;1034751;28;20138;-74
2023/09/23 01:06:34;;;;;;;2.10;1.13;;;;;;;9.96;100.00;95451.06;1040264;28;20463;-75
2023/09/23 01:07:05;;;;;;;2.38;1.23;;;;;;;10.00;100.00;95449.47;1040630;28;20272;-77
2023/09/23 01:07:37;;;;;;;2.05;1.40;;;;;;;9.98;100.00;95443.69;1042624;28;20033;-76
2023/09/23 01:08:20;;;;;;;1.65;1.42;;;;;;;9.99;100.00;95454.97;1038178;28;20053;-75
2023/09/23 01:08:54;;;;;;;1.45;1.35;;;;;;;9.99;100.00;95445.25;1034552;28;20273;-74
2023/09/23 01:09:25;;;;;;;1.92;1.40;;;;;;;9.93;100.00;95443.72;1041064;28;20795;-75
2023/09/23 01:09:56;;;;;;;1.40;1.20;;;;;;;9.99;100.00;95449.72;1046747;28;20321;-76
2023/09/23 01:10:28;;;;;;;3.67;1.75;;;;;;;9.96;100.00;95442.38;1046298;28;20321;-74
2023/09/23 01:10:59;;;;;;;2.08;1.67;;;;;;;9.96;100.00;95443.19;1038608;28;20272;-75
2023/09/23 01:11:30;;;;;;;1.73;1.23;;;;;;;9.98;100.00;95451.56;1034385;28;20273;-75
2023/09/23 01:12:01;;;;;;;1.63;1.52;;;;;;;9.96;100.00;95445.81;1030978;28;20704;-75
2023/09/23 01:12:31;;;;;;;1.45;1.23;;;;;;;10.01;100.00;95451.03;1038721;28;20029;-75
2023/09/23 01:13:02;;;;;;;2.03;1.60;;;;;;;10.01;100.00;95453.66;1040246;28;20036;-75
2023/09/23 01:13:33;;;;;;;1.30;1.20;;;;;;;10.02;100.00;95443.94;1046990;28;20478;-75
2023/09/23 01:14:05;;;;;;;1.58;1.25;;;;;;;10.02;100.00;95447.34;1042694;28;20021;-75
2023/09/23 01:14:35;;;;;;;1.83;1.67;;;;;;;10.02;100.00;95449.97;1042412;28;20111;-75
2023/09/23 01:15:09;;;;;;;1.55;1.45;;;;;;;10.05;100.00;95453.91;1042691;28;20264;-74
2023/09/23 01:15:43;;;;;;;2.60;1.85;;;;;;;10.01;100.00;95448.41;1039347;28;20748;-74
2023/09/23 01:16:14;;;;;;;1.73;1.50;;;;;;;10.02;100.00;95463.09;1037338;28;20357;-75
2023/09/23 01:16:46;;;;;;;1.88;1.48;;;;;;;9.99;100.00;95455.75;1038457;28;20299;-76
2023/09/23 01:17:16;;;;;;;2.83;1.27;;;;;;;10.04;100.00;95463.63;1038571;28;20268;-75
2023/09/23 01:17:49;;;;;;;2.03;1.42;;;;;;;10.05;100.00;95459.16;1043731;28;20325;-75
2023/09/23 01:18:28;;;;;;;1.60;1.50;;;;;;;10.01;100.00;95456.28;1041686;28;20029;-75
2023/09/23 01:18:59;;;;;;;2.35;1.30;;;;;;;10.05;100.00;95459.94;1038264;28;20411;-75
2023/09/23 01:19:29;;;;;;;2.08;1.38;;;;;;;10.07;100.00;95462.31;1030461;28;20335;-75
2023/09/23 01:20:00;;;;;;;2.75;2.15;;;;;;;10.05;100.00;95467.81;1037070;28;20029;-75
2023/09/23 01:20:31;;;;;;;2.25;1.20;;;;;;;10.07;100.00;95468.34;1037809;28;20115;-74
2023/09/23 01:21:03;;;;;;;2.10;1.90;;;;;;;10.07;100.00;95463.09;1034429;28;20022;-75
2023/09/23 01:21:33;;;;;;;1.60;1.50;;;;;;;10.09;100.00;95475.91;1032299;28;20348;-74
2023/09/23 01:22:04;;;;;;;2.17;1.45;;;;;;;10.11;100.00;95471.19;1038033;28;20268;-76
2023/09/23 01:22:36;;;;;;;5.13;1.90;;;;;;;10.12;100.00;95473.53;1038846;28;20041;-75
2023/09/23 01:23:06;;;;;;;2.55;1.95;;;;;;;10.07;100.00;95464.94;1038282;28;20260;-75
2023/09/23 01:23:37;;;;;;;2.88;2.53;;;;;;;10.08;100.00;95463.88;1043111;28;20280;-75
2023/09/23 01:24:07;;;;;;;1.65;1.55;;;;;;;10.12;100.00;95481.41;1038705;28;20076;-75
2023/09/23 01:24:38;;;;;;;2.20;1.60;;;;;;;10.12;100.00;95475.38;1038494;28;20528;-74
2023/09/23 01:25:09;;;;;;;1.45;1.35;;;;;;;10.13;100.00;95479.59;1034880;28;20129;-74
2023/09/23 01:25:39;;;;;;;2.03;1.55;;;;;;;10.12;100.00;95470.16;1033319;28;20261;-74
2023/09/23 01:26:11;;;;;;;3.30;1.63;;;;;;;10.12;100.00;95470.16;1026273;28;20541;-76
2023/09/23 01:26:43;;;;;;;2.78;1.73;;;;;;;10.17;100.00;95477.22;1030398;28;20026;-75
2023/09/23 01:27:13;;;;;;;1.70;1.60;;;;;;;10.17;100.00;95482.47;1030252;28;20804;-74
2023/09/23 01:27:44;;;;;;;1.95;1.75;;;;;;;10.13;100.00;95472.50;1031448;28;20253;-75
2023/09/23 01:28:14;;;;;;;2.83;2.35;;;;;;;10.17;100.00;95482.47;1034513;28;20488;-75
2023/09/23 01:28:47;;;;;;;1.52;1.42;;;;;;;10.19;100.00;95490.84;1038076;28;20033;-74
2023/09/23 01:29:23;;;;;;;1.50;1.40;;;;;;;10.18;100.00;95484.03;1038659;28;20069;-75
2023/09/23 01:29:54;;;;;;;3.33;1.60;;;;;;;10.18;100.00;95487.44;1045776;28;21017;-75
2023/09/23 01:30:26;;;;;;;1.90;1.70;;;;;;;10.20;100.00;95487.19;1046602;28;20304;-75
2023/09/23 01:30:57;;;;;;;3.75;1.88;;;;;;;10.19;100.00;95482.97;1046415;28;20435;-75
2023/09/23 01:31:29;;;;;;;1.83;1.52;;;;;;;10.23;100.00;95487.44;1042322;28;20268;-76
2023/09/23 01:32:04;;;;;;;3.22;1.50;;;;;;;10.22;100.00;95485.84;1034614;28;20273;-74
2023/09/23 01:32:50;;;;;;;3.15;1.67;;;;;;;10.23;100.00;95486.63;1039450;28;20820;-75
2023/09/23 01:33:20;;;;;;;2.03;1.70;;;;;;;10.22;100.00;95491.09;1038300;28;20244;-75
2023/09/23 01:33:51;;;;;;;1.95;1.50;;;;;;;10.24;100.00;95493.47;1038486;28;20260;-75
2023/09/23 01:34:21;;;;;;;2.35;1.80;;;;;;;10.25;100.00;95487.16;1030595;28;20026;-74
2023/09/23 01:34:52;;;;;;;3.80;2.20;;;;;;;10.25;100.00;95492.41;1034434;28;20029;-76
2023/09/23 01:35:23;;;;;;;1.92;1.60;;;;;;;10.21;100.00;95484.28;1038548;28;20057;-75
2023/09/23 01:35:56;;;;;;;2.45;1.70;;;;;;;10.22;100.00;95485.84;1038576;28;20029;-75
2023/09/23 01:36:26;;;;;;;1.80;1.70;;;;;;;10.26;100.00;95496.63;1039011;28;20109;-75
2023/09/23 01:36:57;;;;;;;2.45;1.80;;;;;;;10.27;100.00;95496.38;1042229;28;20263;-75
2023/09/23 01:37:27;;;;;;;1.60;1.50;;;;;;;10.20;100.00;95490.59;1030724;28;20034;-75
2023/09/23 01:37:58;;;;;;;1.80;1.70;;;;;;;10.21;100.00;95497.41;1034867;28;20030;-75
2023/09/23 01:38:31;;;;;;;2.47;1.95;;;;;;;10.24;100.00;95493.47;1036342;28;20516;-76
2023/09/23 01:39:04;;;;;;;1.42;1.33;;;;;;;10.24;100.00;95490.84;1030359;28;20533;-75
2023/09/23 01:39:35;;;;;;;2.10;1.80;;;;;;;10.30;100.00;95502.94;1034303;28;20260;-73
2023/09/23 01:40:06;;;;;;;3.10;1.85;;;;;;;10.29;100.00;95507.38;1034303;28;20775;-75
2023/09/23 01:40:39;;;;;;;1.95;1.55;;;;;;;10.25;100.00;95498.44;1029795;28;20022;-75
2023/09/23 01:41:10;;;;;;;1.95;1.52;;;;;;;10.25;100.00;95500.28;1030355;28;20018;-75
2023/09/23 01:41:40;;;;;;;3.05;1.80;;;;;;;10.30;100.00;95503.72;1030170;28;20701;-75
2023/09/23 01:42:11;;;;;;;1.55;1.45;;;;;;;10.32;100.00;95506.06;1037639;28;20022;-75
2023/09/23 01:42:42;;;;;;;1.83;1.52;;;;;;;10.27;100.00;95503.47;1034535;28;20037;-75
2023/09/23 01:43:12;;;;;;;5.90;1.80;;;;;;;10.30;100.00;95497.69;1042581;28;20025;-75
2023/09/23 01:43:43;;;;;;;3.25;1.75;;;;;;;10.31;100.00;95505.28;1033589;28;20058;-76
2023/09/23 01:44:14;;;;;;;2.03;1.63;;;;;;;10.35;100.00;95502.91;1026278;28;20489;-75
2023/09/23 01:44:45;;;;;;;2.08;1.70;;;;;;;10.35;100.00;95503.69;1030212;28;20030;-74
2023/09/23 01:45:17;;;;;;;1.75;1.65;;;;;;;10.40;100.00;95507.38;1033968;28;20268;-75
2023/09/23 01:45:48;;;;;;;1.77;1.67;;;;;;;10.36;100.00;95512.31;1047494;28;20032;-75
2023/09/23 01:46:19;;;;;;;3.90;1.73;;;;;;;10.40;100.00;95512.63;1046767;28;20700;-75
2023/09/23 01:46:49;;;;;;;2.05;1.80;;;;;;;10.41;100.00;95512.34;1046739;28;20270;-76
2023/09/23 01:47:21;;;;;;;1.80;1.60;;;;;;;10.41;100.00;95511.56;1038071;28;20464;-74
2023/09/23 01:47:52;;;;;;;2.13;1.52;;;;;;;10.41;100.00;95514.94;1034307;28;20034;-74
2023/09/23 01:48:23;;;;;;;3.17;1.90;;;;;;;10.43;100.00;95523.34;1034914;28;20264;-75
2023/09/23 01:48:55;;;;;;;1.98;1.73;;;;;;;10.43;100.00;95519.91;1038315;28;20794;-76
2023/09/23 01:49:25;;;;;;;2.05;1.52;;;;;;;10.44;100.00;95518.88;1034995;28;20205;-73
2023/09/23 01:49:56;;;;;;;3.03;1.65;;;;;;;10.45;100.00;95525.69;1034373;28;20955;-75
2023/09/23 01:50:27;;;;;;;1.95;1.67;;;;;;;10.44;100.00;95517.03;1034916;28;20026;-75
2023/09/23 01:50:58;;;;;;;2.45;1.67;;;;;;;10.42;100.00;95519.13;1042819;28;20017;-75
2023/09/23 01:51:29;;;;;;;2.28;1.27;;;;;;;10.43;100.00;95520.72;1042292;28;20775;-75
2023/09/23 01:52:02;;;;;;;2.25;1.60;;;;;;;10.43;100.00;95525.97;1038833;28;20017;-76
2023/09/23 01:52:33;;;;;;;1.58;1.48;;;;;;;10.47;100.00;95523.59;1042449;28;20032;-75
2023/09/23 01:53:04;;;;;;;2.78;1.65;;;;;;;10.45;100.00;95518.59;1038954;28;20037;-75
2023/09/23 01:53:34;;;;;;;2.65;1.45;;;;;;;10.41;100.00;95514.94;1042585;28;20036;-75
2023/09/23 01:54:05;;;;;;;3.45;1.30;;;;;;;10.48;100.00;95519.91;1046720;28;20271;-74
2023/09/23 01:54:36;;;;;;;2.20;1.83;;;;;;;10.48;100.00;95520.69;1043664;28;20082;-75
2023/09/23 01:55:10;;;;;;;2.22;1.48;;;;;;;10.49;100.00;95527.50;1042499;28;20021;-75
2023/09/23 01:55:40;;;;;;;2.40;1.77;;;;;;;10.49;100.00;95527.50;1041618;28;20275;-74
2023/09/23 01:56:11;;;;;;;1.77;1.35;;;;;;;10.47;100.00;95534.88;1042495;28;20600;-75
2023/09/23 01:56:43;;;;;;;1.63;1.52;;;;;;;10.48;100.00;95528.56;1042510;28;20021;-75
2023/09/23 01:57:16;;;;;;;1.80;1.70;;;;;;;10.50;100.00;95531.72;1032727;28;20438;-74
2023/09/23 01:57:48;;;;;;;2.53;1.67;;;;;;;10.49;100.00;95535.38;1041858;28;20268;-76
2023/09/23 01:58:19;;;;;;;2.15;1.70;;;;;;;10.49;100.00;95531.97;1034237;28;20261;-75
2023/09/23 01:58:50;;;;;;;1.80;1.60;;;;;;;10.47;100.00;95532.25;1034176;28;20312;-74
2023/09/23 01:59:20;;;;;;;3.28;1.90;;;;;;;10.50;100.00;95538.81;1030383;28;20249;-75
2023/09/23 01:59:51;;;;;;;2.08;1.52;;;;;;;10.48;100.00;95536.44;1026357;28;20027;-75
2023/09/23 02:00:28;;;;;;;2.05;1.83;;;;;;;10.48;100.00;95531.19;1030211;28;20813;-75
2023/09/23 02:00:59;;;;;;;2.55;1.88;;;;;;;10.47;100.00;95537.50;1032314;28;20461;-75
2023/09/23 02:01:30;;;;;;;1.45;1.35;;;;;;;10.44;100.00;95532.78;1035928;28;20260;-75
2023/09/23 02:02:04;;;;;;;1.55;1.40;;;;;;;10.40;100.00;95529.13;1035181;28;20018;-75
2023/09/23 02:02:34;;;;;;;3.17;1.63;;;;;;;10.43;100.00;95525.16;1042904;28;20275;-74
2023/09/23 02:03:05;;;;;;;2.05;1.60;;;;;;;10.46;100.00;95538.56;1035091;28;20276;-77
2023/09/23 02:03:35;;;;;;;2.22;1.60;;;;;;;10.46;100.00;95538.56;1026953;28;20030;-76
2023/09/23 02:04:09;;;;;;;2.28;2.05;;;;;;;10.48;100.00;95543.53;1026890;28;20505;-74
2023/09/23 02:04:40;;;;;;;1.58;1.45;;;;;;;10.46;100.00;95543.81;1031460;28;20494;-74
2023/09/23 02:05:10;;;;;;;2.80;1.80;;;;;;;10.41;100.00;95529.91;1032487;28;20265;-75
2023/09/23 02:05:42;;;;;;;1.92;1.42;;;;;;;10.32;100.00;95522.56;1040755;28;20028;-75
2023/09/23 02:06:12;;;;;;;2.00;1.50;;;;;;;10.41;100.00;95532.53;1035204;28;20049;-75
2023/09/23 02:06:43;;;;;;;1.85;1.60;;;;;;;10.44;100.00;95543.28;1030896;28;20795;-74
2023/09/23 02:07:14;;;;;;;1.95;1.40;;;;;;;10.47;100.00;95540.13;1039063;28;20083;-75
2023/09/23 02:07:47;;;;;;;2.03;1.83;;;;;;;10.44;100.00;95540.66;1043180;28;20332;-76
2023/09/23 02:08:17;;;;;;;2.45;1.80;;;;;;;10.46;100.00;95543.00;1039197;28;20298;-76
2023/09/23 02:08:48;;;;;;;2.90;1.58;;;;;;;10.43;100.00;95546.97;1038763;28;20268;-74
2023/09/23 02:09:18;;;;;;;1.92;1.70;;;;;;;10.43;100.00;95552.22;1039467;28;20084;-75
2023/09/23 02:09:49;;;;;;;2.50;1.98;;;;;;;10.45;100.00;95544.06;1033838;28;20046;-75
2023/09/23 02:10:23;;;;;;;2.33;2.13;;;;;;;10.43;100.00;95544.34;1030499;28;20026;-76
2023/09/23 02:10:53;;;;;;;2.30;2.10;;;;;;;10.42;100.00;95548.00;1035056;28;20767;-75
2023/09/23 02:11:24;;;;;;;6.22;2.53;;;;;;;10.43;100.00;95543.53;1038073;28;20260;-75
2023/09/23 02:11:55;;;;;;;3.22;2.35;;;;;;;10.42;100.00;95555.84;1047966;28;20058;-75
2023/09/23 02:12:25;;;;;;;2.75;1.85;;;;;;;10.39;100.00;95538.03;1051100;28;20274;-74
2023/09/23 02:12:57;;;;;;;2.00;1.80;;;;;;;10.42;100.00;95542.75;1043007;28;20481;-76
2023/09/23 02:13:28;;;;;;;2.17;1.80;;;;;;;10.46;100.00;95550.88;1039053;28;20029;-74
2023/09/23 02:13:58;;;;;;;2.47;1.80;;;;;;;10.36;100.00;95542.00;1039344;28;20601;-75
2023/09/23 02:14:30;;;;;;;3.30;2.15;;;;;;;10.44;100.00;95556.41;1034835;28;20026;-75
2023/09/23 02:15:00;;;;;;;2.15;1.77;;;;;;;10.35;100.00;95540.41;1042626;28;20024;-75
2023/09/23 02:15:30;;;;;;;2.30;1.98;;;;;;;10.30;100.00;95529.94;1026959;28;20285;-75
2023/09/23 02:16:01;;;;;;;2.90;2.10;;;;;;;10.41;100.00;95551.69;1026890;28;20038;-75
2023/09/23 02:16:32;;;;;;;2.67;1.83;;;;;;;10.42;100.00;95558.47;1032979;28;20046;-75
2023/09/23 02:17:03;;;;;;;4.68;1.90;;;;;;;10.43;100.00;95552.22;1030982;28;20113;-76
2023/09/23 02:17:36;;;;;;;2.40;2.08;;;;;;;10.46;100.00;95556.94;1030767;28;20261;-75
2023/09/23 02:18:06;;;;;;;2.83;2.03;;;;;;;10.47;100.00;95557.72;1030130;28;20034;-74
2023/09/23 02:18:37;;;;;;;2.80;2.03;;;;;;;10.48;100.00;95554.03;1031915;28;20381;-75
2023/09/23 02:19:08;;;;;;;2.63;2.00;;;;;;;10.45;100.00;95557.97;1035407;28;20030;-75
2023/09/23 02:19:38;;;;;;;2.58;2.15;;;;;;;10.40;100.00;95550.13;1043151;28;20635;-76
2023/09/23 02:20:11;;;;;;;2.45;1.65;;;;;;;10.41;100.00;95551.69;1043114;28;20089;-75
2023/09/23 02:20:43;;;;;;;3.30;1.85;;;;;;;10.45;100.00;95560.59;1034540;28;20022;-75
2023/09/23 02:21:14;;;;;;;2.00;1.75;;;;;;;10.44;100.00;95556.41;1030890;28;20732;-76
2023/09/23 02:21:45;;;;;;;2.47;2.08;;;;;;;10.44;100.00;95560.84;1039018;28;20267;-75
2023/09/23 02:22:18;;;;;;;2.83;2.20;;;;;;;10.43;100.00;95557.44;1042792;28;20279;-76
2023/09/23 02:22:50;;;;;;;4.65;2.20;;;;;;;10.40;100.00;95555.34;1039082;28;20029;-74
2023/09/23 02:23:21;;;;;;;2.58;2.13;;;;;;;10.42;100.00;95558.47;1042314;28;20263;-75
2023/09/23 02:23:52;;;;;;;2.42;2.00;;;;;;;10.44;100.00;95561.63;1036384;28;20276;-75
2023/09/23 02:24:22;;;;;;;2.20;1.73;;;;;;;10.38;100.00;95552.97;1039696;28;20516;-75
2023/09/23 02:24:54;;;;;;;5.40;2.20;;;;;;;10.43;100.00;95564.50;1047531;28;20123;-75
2023/09/23 02:25:24;;;;;;;3.97;2.00;;;;;;;10.40;100.00;95550.13;1047547;28;20032;-76
2023/09/23 02:25:55;;;;;;;4.03;2.13;;;;;;;10.38;100.00;95552.19;1047601;28;20305;-76
2023/09/23 02:26:27;;;;;;;2.50;2.15;;;;;;;10.42;100.00;95558.47;1043702;28;20033;-74
2023/09/23 02:26:57;;;;;;;2.22;1.90;;;;;;;10.41;100.00;95556.13;1044190;28;20025;-75
2023/09/23 02:27:28;;;;;;;2.65;1.75;;;;;;;10.37;100.00;95550.66;1043178;28;20628;-75